This is the latest recevied weather packets stored in our database for station/object F4FTJ-13. If no packets are shown the sender has not sent any weather packets the latest 10 day(s).
| Time | Temp. | Humidity | Pressure | Rain* | Wind** | Luminosity | Snow |
|---|---|---|---|---|---|---|---|
| 1777920929 | 13.89° C | 99% | 1010.6 hPa | 0.51 mm | - | - | - |
| 1777915229 | 15.56° C | 99% | 1010.8 hPa | 0.25 mm | - | - | - |
| 1777908029 | 14.44° C | 99% | 1010.9 hPa | 2.03 mm | - | - | - |
| 1777904129 | 14.44° C | 99% | 1011.1 hPa | 3.05 mm | - | - | - |
| 1777903829 | 14.44° C | 99% | 1010.9 hPa | 3.05 mm | - | - | - |
| 1777903229 | 15° C | 98% | 1011.4 hPa | 2.79 mm | - | - | - |
| 1777902630 | 15° C | 97% | 1011.2 hPa | 0.51 mm | - | - | - |
| 1777900830 | 16.67° C | 91% | 1011.2 hPa | 0 mm | - | - | - |
| 1777899929 | 17.22° C | 90% | 1011 hPa | 0 mm | - | - | - |
| 1777899629 | 17.78° C | 91% | 1011.1 hPa | 0 mm | - | - | - |
| 1777889429 | 16.11° C | 94% | 1012 hPa | 0 mm | - | - | - |
| 1777883730 | 14.44° C | 99% | 1012 hPa | 0 mm | - | - | - |
| 1777881329 | 13.89° C | 99% | 1011.8 hPa | 0 mm | - | - | - |
| 1777875929 | 13.89° C | 99% | 1011.5 hPa | 0 mm | - | - | - |
| 1777875629 | 13.89° C | 99% | 1011.5 hPa | 0 mm | - | - | - |
| 1777874729 | 13.33° C | 99% | 1011.3 hPa | 0 mm | - | - | - |
| 1777874429 | 13.33° C | 99% | 1011.3 hPa | 0 mm | - | - | - |
| 1777872630 | 12.78° C | 99% | 1011.3 hPa | 0 mm | - | - | - |
| 1777871730 | 12.78° C | 99% | 1011.3 hPa | 0 mm | - | - | - |
| 1777868429 | 12.22° C | 99% | 1010.9 hPa | 0 mm | - | - | - |
| 1777866929 | 12.78° C | 99% | 1011.1 hPa | 0 mm | - | - | - |
| 1777865429 | 12.78° C | 99% | 1011.3 hPa | 0 mm | - | - | - |
| 1777864230 | 12.78° C | 99% | 1011.2 hPa | 0 mm | - | - | - |
| 1777862429 | 12.78° C | 99% | 1011.5 hPa | 0 mm | - | - | - |
| 1777860629 | 12.78° C | 99% | 1011.7 hPa | 0 mm | - | - | - |
* Rain latest hour (hover to see other rain measurements)
** Current wind speed in m/s (hover to see current wind gust speed)